aviador You're here:

PAOU Decoded Metar

NELSON LAGOON in AK, USA
Report Time2017-07-23 00:35:00
UTC Time2017-07-23 00:55:17
Flight Rules lifr LIFR
Wind290° at 12 kt
W.Decomp.*RWY 26: 11.6 kt HW 3.1 kt RCW
W.Rank290° ranks 6
Current wind is below 290° avg. (12.4)
Visibility2816 m
Phenomena:Mist
Clouds:Overcast 002 Hf
Ceiling200 ft
Temp11°C (ISA -4)
Dew Point11°C (100% RH)
AAT7.0°C
QNH1021 hPa
Density Alt-558 ft
Elevation13 ft
Report Wrong Elevation
Raw Report
PAOU 230035Z AUTO 29012KT 1 3/4SM BR OVC002 11/11 A3015 RMK AO2
VIS 3/4V5=

Extra information for PAOU:More info

Metar Taf Metar & Taf Last 4 Metars F.Rules Stats Wind Profile Meteogram Temp Stats Airport Information Weather charts Add Link Nearby VenuesMetar ALERT Operation Metar Decoded Social comments

AIRNAV info for PAOU